Time;durP1;ratioP1;P1;durP2;ratioP2;P2;SDS_P1;SDS_P2;PMS_P1;PMS_P2;Temp;Humidity;BMP_temperature;BMP_pressure;BME280_temperature;BME280_humidity;BME280_pressure;Samples;Min_cycle;Max_cycle;Signal;HPM_P1;HPM_P2
2022/01/01 00:00:11;;;;;;;56.83;34.55;;;;;;;12.01;94.22;102257.00;5043343;28;20049;-62
2022/01/01 00:02:36;;;;;;;58.85;36.13;;;;;;;12.04;94.54;102253.84;5044468;28;20112;-62
2022/01/01 00:05:02;;;;;;;75.95;41.78;;;;;;;12.04;94.24;102259.38;5045250;28;20029;-63
2022/01/01 00:07:27;;;;;;;71.75;46.63;;;;;;;12.00;94.78;102256.16;5043014;28;20399;-62
2022/01/01 00:09:53;;;;;;;78.43;49.42;;;;;;;12.01;94.51;102270.78;5044968;28;20029;-62
2022/01/01 00:12:18;;;;;;;79.00;46.83;;;;;;;12.03;94.64;102276.94;5045158;28;20414;-62
2022/01/01 00:14:44;;;;;;;81.07;49.92;;;;;;;12.03;94.80;102276.94;5044132;28;20310;-62
2022/01/01 00:17:09;;;;;;;76.90;46.75;;;;;;;12.03;94.94;102279.69;5044243;28;20028;-62
2022/01/01 00:19:34;;;;;;;81.28;47.85;;;;;;;12.04;95.12;102270.38;5044311;28;20541;-63
2022/01/01 00:22:02;;;;;;;83.07;49.70;;;;;;;12.05;95.12;102270.16;5044649;28;20060;-62
2022/01/01 00:24:27;;;;;;;71.27;43.53;;;;;;;12.09;95.14;102276.13;5044641;28;20037;-62
2022/01/01 00:26:52;;;;;;;65.00;38.10;;;;;;;12.04;95.07;102285.00;5043200;28;20083;-62
2022/01/01 00:29:19;;;;;;;64.20;38.55;;;;;;;12.04;95.16;102281.41;5043962;28;20384;-62
2022/01/01 00:31:44;;;;;;;62.42;37.40;;;;;;;12.05;95.05;102285.84;5043955;28;20044;-62
2022/01/01 00:34:10;;;;;;;71.35;39.03;;;;;;;12.04;95.58;102284.16;5040482;28;20472;-62
2022/01/01 00:36:35;;;;;;;52.85;30.52;;;;;;;12.05;95.16;102286.69;5044467;28;20669;-62
2022/01/01 00:39:00;;;;;;;54.08;26.60;;;;;;;12.11;94.93;102287.75;5044951;28;20033;-62
2022/01/01 00:41:26;;;;;;;54.72;29.13;;;;;;;12.10;95.12;102277.81;5042086;28;20033;-62
2022/01/01 00:43:52;;;;;;;48.33;28.05;;;;;;;12.06;95.03;102276.50;5043824;28;20024;-62
2022/01/01 00:46:17;;;;;;;60.08;36.60;;;;;;;12.08;94.98;102274.44;5045047;28;20228;-62
2022/01/01 00:48:42;;;;;;;91.10;72.38;;;;;;;12.10;94.90;102266.78;5045807;28;20029;-62
2022/01/01 00:51:08;;;;;;;109.13;75.50;;;;;;;12.15;94.32;102264.28;5043445;28;20037;-62
2022/01/01 00:53:33;;;;;;;112.15;79.60;;;;;;;12.13;94.50;102250.72;5043171;28;20266;-62
2022/01/01 00:55:58;;;;;;;105.75;72.50;;;;;;;12.11;94.43;102255.56;5042960;28;20035;-62
2022/01/01 00:58:24;;;;;;;68.15;47.22;;;;;;;12.14;94.33;102257.91;5043526;28;20112;-62
2022/01/01 01:00:49;;;;;;;69.55;49.85;;;;;;;12.14;94.25;102266.19;5043887;28;20062;-62
2022/01/01 01:03:16;;;;;;;56.72;35.67;;;;;;;12.15;94.02;102267.88;5043184;28;20395;-62
2022/01/01 01:05:43;;;;;;;53.35;25.83;;;;;;;12.18;94.04;102272.13;5043978;28;20072;-62
2022/01/01 01:08:10;;;;;;;47.60;25.10;;;;;;;12.15;94.15;102267.03;5043571;28;20076;-62
2022/01/01 01:10:37;;;;;;;45.78;23.27;;;;;;;12.15;94.07;102270.63;5042808;28;20546;-63
2022/01/01 01:13:04;;;;;;;45.78;22.80;;;;;;;12.11;94.24;102274.84;5043088;28;20077;-63
2022/01/01 01:15:32;;;;;;;46.08;21.52;;;;;;;12.11;94.43;102269.34;5044465;28;20025;-62
2022/01/01 01:17:58;;;;;;;50.25;23.60;;;;;;;12.09;94.28;102271.47;5044386;28;20057;-62
2022/01/01 01:20:24;;;;;;;44.58;21.30;;;;;;;12.07;94.45;102283.75;5042717;28;20049;-62
2022/01/01 01:22:50;;;;;;;46.45;21.60;;;;;;;12.13;93.89;102282.91;5044086;28;20095;-62
2022/01/01 01:25:16;;;;;;;42.95;19.67;;;;;;;12.08;94.33;102294.56;5042764;28;20033;-62
2022/01/01 01:27:42;;;;;;;47.08;20.73;;;;;;;12.06;94.47;102282.88;5024469;28;20026;-62
2022/01/01 01:30:10;;;;;;;45.05;20.60;;;;;;;12.07;94.60;102278.25;5029791;28;20021;-62
2022/01/01 01:32:36;;;;;;;42.70;21.05;;;;;;;12.03;94.83;102283.31;5043394;28;20025;-62
2022/01/01 01:35:02;;;;;;;40.03;19.50;;;;;;;12.01;94.72;102285.38;5043028;28;20033;-63
2022/01/01 01:37:28;;;;;;;41.90;20.67;;;;;;;12.03;94.55;102285.22;5043366;28;20043;-62
2022/01/01 01:39:57;;;;;;;46.80;20.50;;;;;;;12.01;94.60;102288.16;5044265;28;20024;-62
2022/01/01 01:42:25;;;;;;;44.70;21.70;;;;;;;11.99;94.63;102282.00;5041937;28;20037;-62
2022/01/01 01:44:53;;;;;;;40.33;21.17;;;;;;;11.99;94.72;102292.19;5055329;28;20021;-62
2022/01/01 01:47:30;;;;;;;43.85;21.35;;;;;;;11.98;94.73;102291.31;5043427;28;20112;-62
2022/01/01 01:49:57;;;;;;;40.47;19.63;;;;;;;11.98;95.05;102304.25;5043166;28;20290;-62
2022/01/01 01:52:23;;;;;;;43.43;21.70;;;;;;;11.98;95.00;102312.50;5043183;28;20021;-62
2022/01/01 01:54:49;;;;;;;49.70;23.95;;;;;;;11.96;95.04;102312.69;5042454;28;20387;-62
2022/01/01 01:57:15;;;;;;;42.55;20.55;;;;;;;11.94;95.27;102304.66;5041249;28;20025;-62
2022/01/01 01:59:43;;;;;;;42.33;19.20;;;;;;;11.94;95.40;102312.91;5043999;28;20475;-62
2022/01/01 02:02:08;;;;;;;39.83;18.65;;;;;;;11.94;95.33;102312.06;5046701;28;20117;-62
2022/01/01 02:04:33;;;;;;;37.72;17.67;;;;;;;11.92;95.63;102317.78;5046777;28;20109;-62
2022/01/01 02:06:59;;;;;;;43.22;18.23;;;;;;;11.91;95.86;102313.34;5047533;28;20040;-62
2022/01/01 02:09:24;;;;;;;41.78;17.83;;;;;;;11.92;95.66;102305.91;5047278;28;20029;-62
2022/01/01 02:11:52;;;;;;;40.28;18.13;;;;;;;11.92;95.87;102312.28;5046225;28;20083;-62
2022/01/01 02:19:26;;;;;;;40.17;17.58;;;;;;;11.90;96.29;102306.09;5046714;28;20037;-62
2022/01/01 02:21:54;;;;;;;33.55;16.70;;;;;;;11.92;96.14;102309.53;5046337;28;20032;-62
2022/01/01 02:24:20;;;;;;;43.25;16.58;;;;;;;11.93;96.43;102302.94;5045691;28;20129;-62
2022/01/01 02:26:45;;;;;;;38.10;15.52;;;;;;;11.91;96.47;102302.31;5043887;28;20163;-62
2022/01/01 02:29:10;;;;;;;37.42;16.33;;;;;;;11.92;96.83;102294.91;5046115;28;20238;-63
2022/01/01 02:31:36;;;;;;;39.28;17.15;;;;;;;11.92;96.82;102297.66;5046298;28;20071;-62
2022/01/01 02:34:06;;;;;;;34.83;16.15;;;;;;;11.90;97.04;102300.59;5040121;28;20626;-63
2022/01/01 02:36:37;;;;;;;42.95;17.60;;;;;;;11.90;97.32;102297.84;5046231;28;20036;-62
2022/01/01 02:39:17;;;;;;;31.98;14.73;;;;;;;11.92;97.41;102297.66;5046278;28;20440;-63
2022/01/01 02:41:43;;;;;;;35.17;14.98;;;;;;;11.90;97.01;102300.59;5045421;28;20163;-62
2022/01/01 02:44:08;;;;;;;32.38;14.48;;;;;;;11.91;97.43;102302.31;5046646;28;20029;-62
2022/01/01 02:46:34;;;;;;;36.75;15.45;;;;;;;11.90;97.48;102297.84;5045557;28;20387;-63
2022/01/01 02:49:00;;;;;;;31.40;15.00;;;;;;;11.91;97.38;102296.81;5045691;28;20032;-62
2022/01/01 02:51:26;;;;;;;34.10;14.35;;;;;;;11.90;97.41;102284.06;5045668;28;20025;-62
2022/01/01 02:53:51;;;;;;;30.95;15.27;;;;;;;11.89;97.39;102287.03;5045682;28;20106;-62
2022/01/01 02:56:17;;;;;;;35.97;14.80;;;;;;;11.89;97.54;102285.13;5044373;28;20017;-62
2022/01/01 02:58:42;;;;;;;34.63;14.93;;;;;;;11.89;97.16;102276.88;5044371;22;20065;-63
2022/01/01 03:01:09;;;;;;;29.15;14.68;;;;;;;11.92;97.51;102270.97;5016853;28;20523;-62
2022/01/01 03:03:34;;;;;;;29.98;14.45;;;;;;;11.95;96.80;102265.03;5007901;28;20025;-62
2022/01/01 03:05:59;;;;;;;34.10;15.15;;;;;;;11.95;96.85;102267.78;5018076;28;20073;-62
2022/01/01 03:08:24;;;;;;;31.92;14.15;;;;;;;11.94;96.78;102274.34;5011291;28;20399;-62
2022/01/01 03:10:50;;;;;;;36.60;15.82;;;;;;;11.94;96.65;102266.09;5013982;28;20041;-62
2022/01/01 03:13:16;;;;;;;28.05;13.95;;;;;;;11.95;96.56;102269.69;5026126;28;20025;-62
2022/01/01 03:15:42;;;;;;;34.60;14.75;;;;;;;11.94;96.70;102268.84;5023413;28;20470;-62
2022/01/01 03:18:07;;;;;;;37.80;16.15;;;;;;;11.97;96.60;102275.88;5005448;28;20018;-62
2022/01/01 03:20:32;;;;;;;32.45;14.85;;;;;;;12.02;96.25;102280.75;5006966;28;20061;-63
2022/01/01 03:22:57;;;;;;;30.35;16.02;;;;;;;11.98;96.44;102282.22;5027061;28;20084;-62
2022/01/01 03:25:23;;;;;;;34.58;16.23;;;;;;;11.99;96.31;102281.16;5012131;28;20080;-62
2022/01/01 03:27:48;;;;;;;27.30;16.02;;;;;;;11.97;96.69;102269.50;5017667;28;20108;-62
2022/01/01 03:30:13;;;;;;;30.63;15.93;;;;;;;11.97;96.61;102269.50;5015287;28;20509;-62
2022/01/01 03:32:39;;;;;;;32.60;16.65;;;;;;;12.03;95.92;102265.94;5006461;28;20057;-62
2022/01/01 03:35:04;;;;;;;33.90;16.10;;;;;;;11.98;96.24;102271.22;5018348;28;20027;-63
2022/01/01 03:37:30;;;;;;;36.20;17.15;;;;;;;12.00;96.16;102263.56;5025914;28;20130;-62
2022/01/01 03:39:55;;;;;;;33.63;16.80;;;;;;;11.99;96.16;102268.25;5024568;28;20041;-62
2022/01/01 03:42:20;;;;;;;35.35;17.05;;;;;;;12.00;95.90;102261.66;5025360;28;20956;-62
2022/01/01 03:44:45;;;;;;;31.45;16.25;;;;;;;11.98;96.00;102252.78;5017845;28;20057;-62
2022/01/01 03:47:11;;;;;;;32.45;16.88;;;;;;;11.98;95.75;102260.19;5011560;28;20017;-62
2022/01/01 03:49:37;;;;;;;28.10;16.20;;;;;;;11.95;95.98;102259.53;5023820;28;20041;-62
2022/01/01 03:52:03;;;;;;;31.20;17.58;;;;;;;11.92;96.12;102254.44;5021019;28;20592;-63
2022/01/01 03:54:28;;;;;;;27.77;15.98;;;;;;;11.92;95.80;102254.44;5006809;28;20057;-62
2022/01/01 03:56:53;;;;;;;29.98;16.00;;;;;;;11.93;95.70;102250.63;5011392;28;20028;-62
2022/01/01 03:59:20;;;;;;;30.17;16.88;;;;;;;11.92;95.78;102259.13;5018924;28;20045;-62
2022/01/01 04:01:45;;;;;;;32.78;16.75;;;;;;;11.91;95.72;102250.00;5013586;28;20508;-62
2022/01/01 04:04:11;;;;;;;30.08;15.43;;;;;;;11.92;95.72;102254.44;5024046;28;20112;-62
2022/01/01 04:06:36;;;;;;;32.63;16.40;;;;;;;11.91;95.57;102255.50;5015873;28;20044;-62
2022/01/01 04:09:01;;;;;;;30.30;14.95;;;;;;;11.92;95.65;102261.88;5005961;28;20058;-63
2022/01/01 04:11:26;;;;;;;28.75;15.43;;;;;;;11.93;95.67;102269.06;5012639;28;20037;-62
2022/01/01 04:13:52;;;;;;;32.30;15.73;;;;;;;11.93;95.30;102261.66;5017985;28;20468;-62
2022/01/01 04:16:18;;;;;;;30.10;14.57;;;;;;;11.92;95.51;102257.22;5006681;28;20029;-62
2022/01/01 04:18:45;;;;;;;30.25;14.43;;;;;;;11.92;95.14;102256.34;5005704;28;20041;-62
2022/01/01 04:21:11;;;;;;;28.88;15.50;;;;;;;11.92;95.34;102256.34;5007002;28;20436;-62
2022/01/01 04:23:38;;;;;;;28.67;14.40;;;;;;;11.93;94.88;102256.16;5024859;28;20076;-62
2022/01/01 04:26:05;;;;;;;29.88;14.45;;;;;;;11.92;95.01;102254.44;5023301;28;20100;-62
2022/01/01 04:28:30;;;;;;;26.13;14.43;;;;;;;11.94;94.82;102243.22;5009509;28;20034;-62
2022/01/01 04:30:55;;;;;;;27.50;13.45;;;;;;;11.93;94.77;102253.38;5024029;28;20379;-62
2022/01/01 04:33:21;;;;;;;24.55;12.93;;;;;;;11.95;94.58;102259.53;5021064;28;20025;-62
2022/01/01 04:35:46;;;;;;;30.67;13.27;;;;;;;11.97;94.32;102253.00;5017277;28;20034;-62
2022/01/01 04:38:28;;;;;;;25.92;13.13;;;;;;;11.98;94.22;102251.94;5013309;28;20041;-62
2022/01/01 04:40:53;;;;;;;24.80;13.35;;;;;;;11.97;94.31;102262.09;5009748;28;20215;-62
2022/01/01 04:43:18;;;;;;;25.48;12.30;;;;;;;11.97;94.09;102261.25;5007080;28;20156;-62
2022/01/01 04:45:44;;;;;;;23.85;11.70;;;;;;;11.98;93.80;102260.19;5018479;28;20032;-62
2022/01/01 04:48:09;;;;;;;28.35;12.18;;;;;;;11.99;93.89;102259.13;5005238;28;20404;-62
2022/01/01 04:50:34;;;;;;;22.55;11.23;;;;;;;12.06;93.46;102260.00;5005785;28;20072;-62
2022/01/01 04:52:59;;;;;;;25.35;11.50;;;;;;;12.00;93.65;102260.81;5013180;28;20033;-62
2022/01/01 04:55:25;;;;;;;26.10;12.05;;;;;;;12.01;93.48;102265.28;5021214;28;20436;-62
2022/01/01 04:57:50;;;;;;;25.20;11.13;;;;;;;12.00;93.55;102267.19;5014749;28;20030;-62
2022/01/01 05:00:16;;;;;;;26.88;11.60;;;;;;;12.01;93.61;102262.50;5017997;28;20341;-62
2022/01/01 05:02:42;;;;;;;24.73;11.40;;;;;;;12.03;93.34;102265.94;5024796;28;20021;-62
2022/01/01 05:05:07;;;;;;;24.30;10.70;;;;;;;12.01;93.60;102276.28;5022131;28;20094;-62
2022/01/01 05:07:33;;;;;;;21.58;11.45;;;;;;;12.03;93.01;102271.44;5009181;28;20116;-62
2022/01/01 05:09:59;;;;;;;28.43;10.67;;;;;;;12.03;93.12;102272.28;5019107;28;20052;-62
2022/01/01 05:12:24;;;;;;;23.15;10.48;;;;;;;12.03;93.19;102275.03;5009020;28;20799;-62
2022/01/01 05:14:50;;;;;;;25.48;11.13;;;;;;;12.00;93.13;102271.84;5004879;28;20068;-62
2022/01/01 05:17:16;;;;;;;22.58;10.80;;;;;;;12.01;92.90;102279.88;5016594;28;20111;-62
2022/01/01 05:19:41;;;;;;;19.83;10.38;;;;;;;12.02;92.72;102280.75;5024088;28;20479;-62
2022/01/01 05:22:07;;;;;;;23.10;10.93;;;;;;;12.05;92.74;102285.84;5013305;28;20037;-62
2022/01/01 05:24:32;;;;;;;26.02;11.30;;;;;;;12.01;92.73;102284.53;5003698;28;20755;-63
2022/01/01 05:26:57;;;;;;;22.67;10.43;;;;;;;12.04;92.61;102289.66;5013066;28;20029;-62
2022/01/01 05:29:23;;;;;;;20.42;10.35;;;;;;;12.06;91.96;102284.78;5023962;28;20017;-62
2022/01/01 05:31:48;;;;;;;23.52;10.05;;;;;;;11.99;92.53;102281.16;5011840;28;20073;-62
2022/01/01 05:34:13;;;;;;;20.08;10.45;;;;;;;11.99;92.51;102271.00;5012401;28;20028;-62
2022/01/01 05:36:38;;;;;;;23.00;10.32;;;;;;;12.02;92.25;102280.75;5015805;28;20034;-62
2022/01/01 05:39:04;;;;;;;25.65;11.32;;;;;;;11.98;92.64;102276.72;5011946;28;20028;-62
2022/01/01 05:41:29;;;;;;;23.42;11.07;;;;;;;11.96;92.78;102276.91;5023190;28;20067;-62
2022/01/01 05:43:54;;;;;;;22.38;9.80;;;;;;;11.95;92.46;102276.03;5018001;28;20123;-62
2022/01/01 05:46:19;;;;;;;21.67;9.60;;;;;;;11.92;92.82;102273.72;5004298;28;20034;-62
2022/01/01 05:48:45;;;;;;;22.75;10.02;;;;;;;11.92;92.78;102276.47;5016322;28;20022;-62
2022/01/01 05:51:10;;;;;;;23.67;10.25;;;;;;;11.97;92.08;102286.88;5003669;28;20042;-62
2022/01/01 05:53:35;;;;;;;20.92;9.15;;;;;;;11.90;92.58;102278.56;5006086;28;20530;-62
2022/01/01 05:56:00;;;;;;;19.70;9.52;;;;;;;11.88;92.50;102275.19;5011722;28;20364;-61
2022/01/01 05:58:26;;;;;;;23.05;9.68;;;;;;;11.86;92.70;102271.78;5016253;28;20069;-62
2022/01/01 06:00:51;;;;;;;18.88;9.00;;;;;;;11.85;92.85;102270.06;5004364;28;20033;-62
2022/01/01 06:03:18;;;;;;;18.17;9.35;;;;;;;11.84;92.74;102271.13;5008663;28;20018;-62
2022/01/01 06:05:43;;;;;;;17.25;7.70;;;;;;;11.86;92.45;102274.56;5022566;28;20091;-62
2022/01/01 06:08:09;;;;;;;19.45;9.57;;;;;;;11.87;92.01;102262.47;5007525;28;20085;-62
2022/01/01 06:10:34;;;;;;;21.13;9.32;;;;;;;11.82;92.24;102259.50;5022094;28;20538;-62
2022/01/01 06:12:59;;;;;;;20.13;8.80;;;;;;;11.79;92.28;102256.25;5024225;28;20467;-62
2022/01/01 06:15:25;;;;;;;19.40;8.52;;;;;;;11.78;92.11;102240.78;5005869;28;20117;-62
2022/01/01 06:17:50;;;;;;;22.25;8.95;;;;;;;11.70;92.53;102244.56;5004214;28;20061;-62
2022/01/01 06:20:15;;;;;;;20.13;9.65;;;;;;;11.65;92.39;102253.41;5016363;28;20052;-62
2022/01/01 06:22:42;;;;;;;18.08;8.45;;;;;;;11.67;92.16;102256.84;5010361;28;20036;-62
2022/01/01 06:25:08;;;;;;;23.00;9.20;;;;;;;11.67;92.48;102256.00;5004574;28;20025;-62
2022/01/01 06:27:33;;;;;;;22.45;8.70;;;;;;;11.62;92.30;102258.50;5002177;28;20409;-63
2022/01/01 06:29:58;;;;;;;23.48;9.07;;;;;;;11.59;92.13;102254.25;5015989;28;20014;-62
2022/01/01 06:32:24;;;;;;;22.00;8.60;;;;;;;11.53;92.48;102266.06;5001882;28;20045;-62
2022/01/01 06:34:49;;;;;;;20.13;8.27;;;;;;;11.49;92.44;102264.75;5014622;28;20034;-62
2022/01/01 06:37:14;;;;;;;22.38;9.40;;;;;;;11.42;92.70;102263.88;5022010;28;20058;-62
2022/01/01 06:39:40;;;;;;;18.35;8.68;;;;;;;11.36;92.91;102276.53;5005908;28;20030;-62
2022/01/01 06:42:05;;;;;;;20.70;7.93;;;;;;;11.42;92.43;102274.88;5011224;28;20290;-63
2022/01/01 06:44:30;;;;;;;22.33;8.75;;;;;;;11.32;92.46;102267.00;5024153;28;20112;-62
2022/01/01 06:46:56;;;;;;;19.20;8.05;;;;;;;11.30;92.84;102279.22;5023980;28;20445;-62
2022/01/01 06:49:21;;;;;;;21.85;7.93;;;;;;;11.28;92.70;102273.94;5026749;28;20040;-62
2022/01/01 06:51:46;;;;;;;20.83;8.63;;;;;;;11.29;92.72;102278.38;5010255;28;20030;-62
2022/01/01 06:54:11;;;;;;;20.85;8.77;;;;;;;11.31;92.85;102276.31;5007051;28;20284;-62
2022/01/01 06:56:37;;;;;;;18.50;8.07;;;;;;;11.29;92.74;102272.03;5022997;28;20091;-62
2022/01/01 06:59:02;;;;;;;16.90;8.35;;;;;;;11.29;92.65;102272.88;5023498;28;20418;-63
2022/01/01 07:01:28;;;;;;;18.20;8.02;;;;;;;11.30;92.50;102273.72;5025127;28;20120;-62
2022/01/01 07:03:53;;;;;;;18.38;7.95;;;;;;;11.34;92.69;102273.13;5025111;28;20049;-62
2022/01/01 07:06:18;;;;;;;19.90;7.72;;;;;;;11.38;92.38;102279.94;5006768;28;20037;-62
2022/01/01 07:08:43;;;;;;;19.52;7.95;;;;;;;11.38;92.33;102287.34;5006387;28;20057;-62
2022/01/01 07:11:09;;;;;;;21.45;7.65;;;;;;;11.39;92.35;102286.28;5015527;28;20030;-62
2022/01/01 07:13:34;;;;;;;19.42;7.50;;;;;;;11.40;92.01;102299.84;5019894;28;20505;-62
2022/01/01 07:15:59;;;;;;;18.70;7.05;;;;;;;11.43;92.08;102302.19;5025364;28;20028;-62
2022/01/01 07:18:24;;;;;;;21.08;7.25;;;;;;;11.47;91.69;102308.16;5012227;28;20072;-62
2022/01/01 07:20:50;;;;;;;17.90;7.97;;;;;;;11.49;91.60;102302.44;5015392;28;20037;-62
2022/01/01 07:23:15;;;;;;;16.75;7.28;;;;;;;11.49;91.52;102295.03;5025763;28;20037;-62
2022/01/01 07:25:40;;;;;;;16.85;6.88;;;;;;;11.50;91.88;102295.88;5012618;28;20057;-62
2022/01/01 07:28:06;;;;;;;14.88;7.78;;;;;;;11.54;91.27;102299.94;5006163;28;20041;-62
2022/01/01 07:30:31;;;;;;;16.77;7.20;;;;;;;11.54;91.32;102305.44;5007586;28;20211;-62
2022/01/01 07:32:56;;;;;;;13.75;6.60;;;;;;;11.54;91.01;102300.78;5006146;28;20112;-62
2022/01/01 07:35:22;;;;;;;15.52;6.93;;;;;;;11.59;90.73;102298.28;5012637;28;20033;-62
2022/01/01 07:37:49;;;;;;;16.95;6.75;;;;;;;11.56;91.03;102308.84;5023578;28;20018;-62
2022/01/01 07:40:16;;;;;;;16.85;6.32;;;;;;;11.59;90.92;102302.94;5004622;28;20014;-62
2022/01/01 07:42:42;;;;;;;18.02;6.13;;;;;;;11.58;90.68;102301.22;5007099;28;20358;-62
2022/01/01 07:45:08;;;;;;;20.42;6.95;;;;;;;11.59;90.42;102314.78;5004206;28;20061;-62
2022/01/01 07:47:33;;;;;;;15.52;6.75;;;;;;;11.59;90.76;102319.44;5006525;28;20527;-62
2022/01/01 07:49:59;;;;;;;22.33;6.50;;;;;;;11.62;90.16;102317.13;5007934;28;20018;-62
2022/01/01 07:52:24;;;;;;;12.85;5.97;;;;;;;11.62;90.42;102319.03;5024857;28;20087;-62
2022/01/01 07:54:50;;;;;;;14.90;6.45;;;;;;;11.61;90.29;102325.59;5019821;28;20037;-62
2022/01/01 07:57:15;;;;;;;21.92;6.40;;;;;;;11.60;90.12;102321.97;5011394;28;20022;-62
2022/01/01 07:59:40;;;;;;;17.05;7.00;;;;;;;11.59;90.58;102327.69;5023515;28;20091;-62
2022/01/01 08:02:06;;;;;;;19.33;7.43;;;;;;;11.59;90.25;102331.28;5008541;28;20117;-62
2022/01/01 08:04:31;;;;;;;18.90;6.63;;;;;;;11.62;90.13;102333.66;5006596;28;20036;-62
2022/01/01 08:06:56;;;;;;;15.48;6.43;;;;;;;11.61;90.20;102331.13;5018703;28;20025;-62
2022/01/01 08:09:21;;;;;;;18.60;6.93;;;;;;;11.65;89.62;102329.63;5016938;28;20084;-62
2022/01/01 08:11:47;;;;;;;13.52;6.55;;;;;;;11.67;89.79;102327.53;5004658;28;20034;-62
2022/01/01 08:14:12;;;;;;;18.73;6.60;;;;;;;11.69;89.60;102330.94;5006641;28;20087;-62
2022/01/01 08:16:56;;;;;;;15.27;6.22;;;;;;;11.69;89.51;102326.28;5004883;28;20065;-62
2022/01/01 08:19:22;;;;;;;17.13;6.28;;;;;;;11.71;89.25;102328.84;5012196;28;20479;-62
2022/01/01 08:21:47;;;;;;;14.27;6.28;;;;;;;11.73;89.16;102325.88;5006774;28;20029;-62
2022/01/01 08:24:12;;;;;;;15.93;6.82;;;;;;;11.77;88.82;102327.19;5024248;28;20124;-62
2022/01/01 08:26:38;;;;;;;15.80;6.40;;;;;;;11.77;88.77;102330.78;5021803;28;20329;-62
2022/01/01 08:29:03;;;;;;;17.65;7.00;;;;;;;11.78;88.71;102326.97;5024036;28;20033;-62
2022/01/01 08:31:28;;;;;;;18.73;6.40;;;;;;;11.80;88.31;102330.38;5011937;28;20079;-62
2022/01/01 08:33:53;;;;;;;24.27;6.22;;;;;;;11.82;88.90;102331.06;5006139;28;20030;-62
2022/01/01 08:36:19;;;;;;;16.37;5.93;;;;;;;11.85;88.30;102327.03;5007945;28;20491;-62
2022/01/01 08:38:44;;;;;;;13.25;6.03;;;;;;;11.88;87.88;102319.22;5005311;28;20287;-62
2022/01/01 08:41:09;;;;;;;17.15;6.00;;;;;;;11.85;88.29;102318.78;5003856;28;20041;-62
2022/01/01 08:43:35;;;;;;;13.15;6.78;;;;;;;11.87;88.29;102322.19;5024790;28;20292;-62
2022/01/01 08:46:00;;;;;;;16.63;6.78;;;;;;;11.87;88.25;102316.69;5017440;28;20059;-61
2022/01/01 08:48:25;;;;;;;17.08;6.28;;;;;;;11.89;88.07;102320.06;5015132;28;20384;-61
2022/01/01 08:50:50;;;;;;;18.40;6.72;;;;;;;11.91;87.90;102323.47;5017620;28;20087;-62
2022/01/01 08:53:16;;;;;;;17.33;7.50;;;;;;;11.92;87.90;102322.44;5014677;28;20493;-62
2022/01/01 08:55:41;;;;;;;14.60;6.70;;;;;;;11.93;87.53;102324.13;5023536;28;20071;-62
2022/01/01 08:58:06;;;;;;;19.23;7.45;;;;;;;11.93;87.77;102324.97;5021822;28;20049;-62
2022/01/01 09:00:32;;;;;;;18.77;7.20;;;;;;;11.93;87.85;102332.38;5011652;28;20030;-63
2022/01/01 09:02:57;;;;;;;13.07;6.57;;;;;;;11.92;87.97;102326.03;5022800;28;20029;-62
2022/01/01 09:05:24;;;;;;;17.85;7.00;;;;;;;11.90;87.88;102314.34;5023533;28;20140;-62
2022/01/01 09:07:49;;;;;;;18.60;7.18;;;;;;;11.90;87.99;102328.13;5005993;28;20030;-62
2022/01/01 09:10:15;;;;;;;17.63;7.43;;;;;;;11.92;87.84;102322.44;5004745;28;20034;-62
2022/01/01 09:12:40;;;;;;;17.65;7.03;;;;;;;11.91;87.98;102318.84;5003624;28;20034;-62
2022/01/01 09:15:05;;;;;;;17.02;7.20;;;;;;;11.94;87.47;102312.06;5004680;28;20315;-62
2022/01/01 09:17:31;;;;;;;19.73;7.80;;;;;;;11.97;87.89;102317.16;5023180;28;20424;-62
2022/01/01 09:19:56;;;;;;;18.00;8.95;;;;;;;11.97;87.82;102311.66;5019845;28;20117;-62
2022/01/01 09:22:22;;;;;;;16.45;7.90;;;;;;;12.00;87.44;102321.41;5018930;28;20503;-62
2022/01/01 09:24:47;;;;;;;15.02;8.35;;;;;;;12.04;87.29;102314.44;5023066;28;20025;-62
2022/01/01 09:27:12;;;;;;;19.60;8.60;;;;;;;12.05;87.24;102310.63;5023229;28;20022;-62
2022/01/01 09:29:37;;;;;;;16.17;7.25;;;;;;;12.08;87.30;102310.22;5022011;28;20448;-62
2022/01/01 09:32:04;;;;;;;15.15;7.80;;;;;;;12.12;87.34;102309.63;5023472;28;20064;-62
2022/01/01 09:34:29;;;;;;;17.83;8.35;;;;;;;12.17;86.67;102307.09;5023650;28;20076;-62
2022/01/01 09:36:54;;;;;;;18.70;7.93;;;;;;;12.19;86.46;102298.63;5023549;28;20038;-62
2022/01/01 09:39:20;;;;;;;14.80;7.68;;;;;;;12.26;86.49;102295.88;5021849;28;20524;-62
2022/01/01 09:41:46;;;;;;;17.02;8.00;;;;;;;12.31;85.87;102304.38;5003911;28;20476;-62
2022/01/01 09:44:14;;;;;;;16.55;7.40;;;;;;;12.38;85.92;102308.84;5003076;28;20030;-62
2022/01/01 09:46:42;;;;;;;19.77;8.23;;;;;;;12.41;85.80;102305.66;5013626;28;20014;-62
2022/01/01 09:49:08;;;;;;;15.07;7.55;;;;;;;12.43;85.30;102303.56;5023338;28;20063;-62
2022/01/01 09:51:34;;;;;;;18.02;8.02;;;;;;;12.43;85.35;102302.72;5004398;28;20065;-62
2022/01/01 09:53:59;;;;;;;14.13;7.43;;;;;;;12.42;85.44;102295.53;5003608;28;20057;-62
2022/01/01 09:56:25;;;;;;;16.17;7.87;;;;;;;12.44;84.79;102301.66;5002434;28;20033;-62
2022/01/01 09:58:50;;;;;;;16.80;8.27;;;;;;;12.40;84.98;102306.72;5005964;28;20514;-62
2022/01/01 10:01:16;;;;;;;19.05;9.07;;;;;;;12.37;85.09;102298.91;5021183;28;20104;-62
2022/01/01 10:03:45;;;;;;;17.60;9.55;;;;;;;12.36;85.07;102299.94;5021296;28;20010;-62
2022/01/01 10:06:14;;;;;;;20.38;8.60;;;;;;;12.51;84.93;102299.75;5020861;28;20026;-62
2022/01/01 10:08:41;;;;;;;15.65;7.88;;;;;;;12.76;83.52;102299.19;5012952;28;20025;-62
2022/01/01 10:11:08;;;;;;;17.30;8.13;;;;;;;13.11;82.36;102294.34;5016939;28;20279;-62
2022/01/01 10:13:39;;;;;;;14.93;7.78;;;;;;;13.44;81.01;102280.56;5019540;28;20032;-62
2022/01/01 10:16:06;;;;;;;16.83;8.50;;;;;;;13.64;79.55;102261.19;5007124;28;20057;-62
2022/01/01 10:18:34;;;;;;;18.58;7.97;;;;;;;14.04;78.10;102264.66;5004352;28;20136;-63
2022/01/01 10:21:08;;;;;;;17.23;7.95;;;;;;;14.34;77.03;102262.16;5015403;28;20022;-62
2022/01/01 10:23:35;;;;;;;19.77;8.40;;;;;;;14.47;75.53;102256.59;5027212;28;20098;-62
2022/01/01 10:29:17;;;;;;;15.85;6.63;;;;;;;14.04;77.45;102261.91;5025115;28;20164;-62
2022/01/01 10:32:01;;;;;;;13.35;7.20;;;;;;;13.92;78.15;102266.41;5025402;28;20033;-62
2022/01/01 10:34:31;;;;;;;15.15;7.30;;;;;;;13.75;77.82;102249.47;5007611;28;20071;-62
2022/01/01 10:36:58;;;;;;;15.85;7.82;;;;;;;13.83;78.54;102259.41;5008284;28;20444;-62
2022/01/01 10:39:23;;;;;;;15.15;6.78;;;;;;;14.01;76.96;102262.34;5006643;28;20358;-62
2022/01/01 10:41:55;;;;;;;13.80;7.35;;;;;;;14.31;76.79;102253.47;5022081;28;20032;-62
2022/01/01 10:44:31;;;;;;;23.67;9.88;;;;;;;14.60;74.88;102254.78;5019253;28;20033;-62
2022/01/01 10:46:58;;;;;;;17.30;8.07;;;;;;;14.78;73.80;102241.06;5019922;28;20033;-62
2022/01/01 10:52:24;;;;;;;16.48;7.68;;;;;;;15.24;73.16;102220.44;5027046;28;20040;-62
2022/01/01 10:54:55;;;;;;;14.80;7.95;;;;;;;15.15;72.70;102219.88;5014722;28;20053;-62
2022/01/01 10:57:26;;;;;;;12.48;7.22;;;;;;;14.91;73.23;102216.06;5025469;28;20034;-62
2022/01/01 11:00:16;;;;;;;13.88;7.55;;;;;;;14.72;74.64;102233.66;5024925;28;20088;-62
2022/01/01 11:02:49;;;;;;;15.95;7.72;;;;;;;14.36;74.73;102232.38;5026727;28;20184;-62
2022/01/01 11:05:15;;;;;;;14.30;6.40;;;;;;;14.07;76.20;102221.94;5027288;28;20053;-62
2022/01/01 11:07:50;;;;;;;13.65;6.55;;;;;;;13.84;77.54;102227.97;5009635;28;20022;-62
2022/01/01 11:10:17;;;;;;;16.42;7.32;;;;;;;13.69;78.45;102223.59;5007931;28;20116;-62
2022/01/01 11:12:43;;;;;;;14.25;6.55;;;;;;;13.68;79.05;102226.53;5006770;28;20487;-62
2022/01/01 11:15:10;;;;;;;13.48;7.05;;;;;;;13.71;78.69;102229.72;5007735;28;20026;-62
2022/01/01 11:17:36;;;;;;;15.63;9.32;;;;;;;13.77;79.03;102228.00;5009555;28;20057;-62